sensor_id;sensor_type;location;lat;lon;timestamp;pressure;altitude;pressure_sealevel;temperature;humidity
46347;BME280;32057;47.830;19.046;2023-04-04T00:01:34;100517.91;;;0.01;71.12
46347;BME280;32057;47.830;19.046;2023-04-04T00:04:00;100524.44;;;-0.30;71.44
46347;BME280;32057;47.830;19.046;2023-04-04T00:06:25;100528.28;;;-0.62;73.61
46347;BME280;32057;47.830;19.046;2023-04-04T00:08:50;100532.84;;;-0.69;74.49
46347;BME280;32057;47.830;19.046;2023-04-04T00:11:16;100528.84;;;-0.66;76.57
46347;BME280;32057;47.830;19.046;2023-04-04T00:13:41;100526.03;;;-0.57;77.01
46347;BME280;32057;47.830;19.046;2023-04-04T00:16:07;100520.63;;;-0.48;77.24
46347;BME280;32057;47.830;19.046;2023-04-04T00:18:32;100525.03;;;-0.34;76.82
46347;BME280;32057;47.830;19.046;2023-04-04T00:20:58;100526.81;;;-0.19;77.76
46347;BME280;32057;47.830;19.046;2023-04-04T00:23:24;100526.34;;;-0.14;78.47
46347;BME280;32057;47.830;19.046;2023-04-04T00:25:50;100529.19;;;-0.09;78.39
46347;BME280;32057;47.830;19.046;2023-04-04T00:28:20;100534.81;;;-0.40;75.11
46347;BME280;32057;47.830;19.046;2023-04-04T00:30:46;100531.72;;;-0.36;78.24
46347;BME280;32057;47.830;19.046;2023-04-04T00:33:13;100526.66;;;-0.34;78.78
46347;BME280;32057;47.830;19.046;2023-04-04T00:35:39;100528.00;;;-0.28;81.06
46347;BME280;32057;47.830;19.046;2023-04-04T00:38:05;100532.13;;;-0.30;78.54
46347;BME280;32057;47.830;19.046;2023-04-04T00:40:30;100537.88;;;-0.32;78.37
46347;BME280;32057;47.830;19.046;2023-04-04T00:42:56;100540.72;;;-0.41;76.43
46347;BME280;32057;47.830;19.046;2023-04-04T00:45:23;100541.50;;;-0.42;76.71
46347;BME280;32057;47.830;19.046;2023-04-04T00:47:49;100550.59;;;-0.34;78.39
46347;BME280;32057;47.830;19.046;2023-04-04T00:50:15;100549.84;;;-0.45;77.71
46347;BME280;32057;47.830;19.046;2023-04-04T00:52:42;100549.31;;;-0.52;77.19
46347;BME280;32057;47.830;19.046;2023-04-04T00:55:07;100552.88;;;-0.50;78.98
46347;BME280;32057;47.830;19.046;2023-04-04T00:57:33;100551.06;;;-0.39;80.20
46347;BME280;32057;47.830;19.046;2023-04-04T01:00:01;100555.44;;;-0.50;79.22
46347;BME280;32057;47.830;19.046;2023-04-04T01:02:28;100546.81;;;-0.64;78.88
46347;BME280;32057;47.830;19.046;2023-04-04T01:04:54;100547.16;;;-0.59;82.76
46347;BME280;32057;47.830;19.046;2023-04-04T01:07:20;100550.25;;;-0.52;82.22
46347;BME280;32057;47.830;19.046;2023-04-04T01:09:46;100540.72;;;-0.41;81.25
46347;BME280;32057;47.830;19.046;2023-04-04T01:12:11;100540.16;;;-0.37;79.07
46347;BME280;32057;47.830;19.046;2023-04-04T01:14:37;100539.38;;;-0.23;80.07
46347;BME280;32057;47.830;19.046;2023-04-04T01:17:02;100536.66;;;-0.12;79.99
46347;BME280;32057;47.830;19.046;2023-04-04T01:19:35;100537.16;;;-0.05;80.40
46347;BME280;32057;47.830;19.046;2023-04-04T01:22:01;100524.69;;;0.00;81.56
46347;BME280;32057;47.830;19.046;2023-04-04T01:24:31;100525.47;;;-0.01;81.74
46347;BME280;32057;47.830;19.046;2023-04-04T01:26:57;100520.56;;;0.02;81.08
46347;BME280;32057;47.830;19.046;2023-04-04T01:29:25;100519.91;;;-0.21;80.09
46347;BME280;32057;47.830;19.046;2023-04-04T01:31:56;100508.13;;;-0.18;81.53
46347;BME280;32057;47.830;19.046;2023-04-04T01:34:45;100519.34;;;-0.55;79.82
46347;BME280;32057;47.830;19.046;2023-04-04T01:37:32;100511.69;;;-0.55;81.36
46347;BME280;32057;47.830;19.046;2023-04-04T01:40:29;100507.59;;;-0.65;80.50
46347;BME280;32057;47.830;19.046;2023-04-04T01:42:52;100502.53;;;-0.76;81.60
46347;BME280;32057;47.830;19.046;2023-04-04T01:45:20;100495.63;;;-0.66;83.65
46347;BME280;32057;47.830;19.046;2023-04-04T01:47:45;100497.19;;;-0.68;83.29
46347;BME280;32057;47.830;19.046;2023-04-04T01:50:11;100490.59;;;-0.64;84.67
46347;BME280;32057;47.830;19.046;2023-04-04T01:52:36;100488.25;;;-0.61;83.31
46347;BME280;32057;47.830;19.046;2023-04-04T01:55:02;100485.34;;;-0.54;83.93
46347;BME280;32057;47.830;19.046;2023-04-04T01:57:29;100476.34;;;-0.61;81.53
46347;BME280;32057;47.830;19.046;2023-04-04T01:59:55;100471.81;;;-0.65;82.69
46347;BME280;32057;47.830;19.046;2023-04-04T02:02:20;100470.22;;;-0.76;82.45
46347;BME280;32057;47.830;19.046;2023-04-04T02:04:45;100470.59;;;-0.83;83.03
46347;BME280;32057;47.830;19.046;2023-04-04T02:07:12;100464.69;;;-0.82;82.86
46347;BME280;32057;47.830;19.046;2023-04-04T02:09:38;100466.06;;;-0.87;82.91
46347;BME280;32057;47.830;19.046;2023-04-04T02:12:04;100454.06;;;-0.88;82.99
46347;BME280;32057;47.830;19.046;2023-04-04T02:14:29;100448.47;;;-0.83;83.63
46347;BME280;32057;47.830;19.046;2023-04-04T02:16:55;100447.06;;;-0.91;81.69
46347;BME280;32057;47.830;19.046;2023-04-04T02:19:20;100445.31;;;-0.92;84.00
46347;BME280;32057;47.830;19.046;2023-04-04T02:21:46;100432.84;;;-0.87;82.67
46347;BME280;32057;47.830;19.046;2023-04-04T02:24:11;100433.72;;;-0.87;81.49
46347;BME280;32057;47.830;19.046;2023-04-04T02:26:36;100426.28;;;-0.84;82.08
46347;BME280;32057;47.830;19.046;2023-04-04T02:29:03;100425.97;;;-0.88;81.19
46347;BME280;32057;47.830;19.046;2023-04-04T02:31:28;100424.97;;;-0.90;80.42
46347;BME280;32057;47.830;19.046;2023-04-04T02:33:54;100422.41;;;-0.90;80.57
46347;BME280;32057;47.830;19.046;2023-04-04T02:36:20;100413.59;;;-0.82;80.81
46347;BME280;32057;47.830;19.046;2023-04-04T02:38:45;100412.59;;;-0.97;76.96
46347;BME280;32057;47.830;19.046;2023-04-04T02:41:10;100408.53;;;-1.07;77.40
46347;BME280;32057;47.830;19.046;2023-04-04T02:43:36;100404.50;;;-1.04;77.57
46347;BME280;32057;47.830;19.046;2023-04-04T02:46:01;100399.44;;;-0.90;77.69
46347;BME280;32057;47.830;19.046;2023-04-04T02:48:27;100393.38;;;-0.79;77.13
46347;BME280;32057;47.830;19.046;2023-04-04T02:50:53;100398.13;;;-0.72;78.33
46347;BME280;32057;47.830;19.046;2023-04-04T02:53:18;100399.53;;;-0.89;76.38
46347;BME280;32057;47.830;19.046;2023-04-04T02:55:43;100393.75;;;-0.86;77.04
46347;BME280;32057;47.830;19.046;2023-04-04T02:58:09;100395.53;;;-0.85;77.23
46347;BME280;32057;47.830;19.046;2023-04-04T03:00:34;100400.16;;;-0.79;77.93
46347;BME280;32057;47.830;19.046;2023-04-04T03:03:00;100399.69;;;-0.74;78.82
46347;BME280;32057;47.830;19.046;2023-04-04T03:05:26;100401.56;;;-0.96;77.73
46347;BME280;32057;47.830;19.046;2023-04-04T03:07:55;100387.09;;;-1.34;80.09
46347;BME280;32057;47.830;19.046;2023-04-04T03:10:22;100395.31;;;-1.38;81.69
46347;BME280;32057;47.830;19.046;2023-04-04T03:12:48;100394.91;;;-1.45;82.91
46347;BME280;32057;47.830;19.046;2023-04-04T03:15:13;100404.00;;;-1.48;83.55
46347;BME280;32057;47.830;19.046;2023-04-04T03:17:39;100408.47;;;-1.46;85.17
46347;BME280;32057;47.830;19.046;2023-04-04T03:20:05;100412.41;;;-1.37;85.07
46347;BME280;32057;47.830;19.046;2023-04-04T03:22:30;100410.13;;;-1.21;85.21
46347;BME280;32057;47.830;19.046;2023-04-04T03:24:56;100411.75;;;-1.10;85.65
46347;BME280;32057;47.830;19.046;2023-04-04T03:27:22;100409.91;;;-0.99;84.54
46347;BME280;32057;47.830;19.046;2023-04-04T03:29:47;100417.31;;;-0.90;85.02
46347;BME280;32057;47.830;19.046;2023-04-04T03:32:13;100413.16;;;-1.02;85.21
46347;BME280;32057;47.830;19.046;2023-04-04T03:34:38;100413.41;;;-1.10;85.12
46347;BME280;32057;47.830;19.046;2023-04-04T03:37:03;100408.56;;;-1.19;85.31
46347;BME280;32057;47.830;19.046;2023-04-04T03:39:29;100414.84;;;-1.14;84.97
46347;BME280;32057;47.830;19.046;2023-04-04T03:41:57;100420.19;;;-1.11;85.23
46347;BME280;32057;47.830;19.046;2023-04-04T03:44:23;100415.91;;;-1.24;82.67
46347;BME280;32057;47.830;19.046;2023-04-04T03:46:48;100414.44;;;-1.45;80.82
46347;BME280;32057;47.830;19.046;2023-04-04T03:49:14;100422.88;;;-1.58;82.12
46347;BME280;32057;47.830;19.046;2023-04-04T03:51:40;100417.81;;;-1.70;83.28
46347;BME280;32057;47.830;19.046;2023-04-04T03:54:05;100425.94;;;-1.75;83.91
46347;BME280;32057;47.830;19.046;2023-04-04T03:56:31;100422.47;;;-1.76;84.35
46347;BME280;32057;47.830;19.046;2023-04-04T03:58:57;100426.81;;;-1.75;85.64
46347;BME280;32057;47.830;19.046;2023-04-04T04:01:22;100431.81;;;-1.76;84.99
46347;BME280;32057;47.830;19.046;2023-04-04T04:03:48;100433.78;;;-1.72;85.12
46347;BME280;32057;47.830;19.046;2023-04-04T04:06:13;100424.47;;;-1.72;85.26
46347;BME280;32057;47.830;19.046;2023-04-04T04:08:39;100432.91;;;-1.73;84.69
46347;BME280;32057;47.830;19.046;2023-04-04T04:11:05;100440.25;;;-1.77;85.05
46347;BME280;32057;47.830;19.046;2023-04-04T04:13:31;100437.78;;;-1.76;85.37
46347;BME280;32057;47.830;19.046;2023-04-04T04:15:56;100442.22;;;-1.73;85.55
46347;BME280;32057;47.830;19.046;2023-04-04T04:18:22;100423.81;;;-1.69;85.94
46347;BME280;32057;47.830;19.046;2023-04-04T04:20:47;100424.44;;;-1.60;88.16
46347;BME280;32057;47.830;19.046;2023-04-04T04:23:12;100424.22;;;-1.51;87.25
46347;BME280;32057;47.830;19.046;2023-04-04T04:25:38;100433.31;;;-1.55;87.48
46347;BME280;32057;47.830;19.046;2023-04-04T04:28:03;100429.47;;;-1.62;85.88
46347;BME280;32057;47.830;19.046;2023-04-04T04:30:29;100433.34;;;-1.78;85.98
46347;BME280;32057;47.830;19.046;2023-04-04T04:32:54;100429.63;;;-1.84;87.55
46347;BME280;32057;47.830;19.046;2023-04-04T04:35:20;100427.38;;;-1.79;88.63
46347;BME280;32057;47.830;19.046;2023-04-04T04:37:45;100427.69;;;-1.74;88.74
46347;BME280;32057;47.830;19.046;2023-04-04T04:40:11;100428.56;;;-1.62;86.18
46347;BME280;32057;47.830;19.046;2023-04-04T04:42:45;100421.66;;;-1.51;85.77
46347;BME280;32057;47.830;19.046;2023-04-04T04:45:10;100430.59;;;-1.33;86.45
46347;BME280;32057;47.830;19.046;2023-04-04T04:47:36;100423.88;;;-1.19;86.91
46347;BME280;32057;47.830;19.046;2023-04-04T04:50:02;100429.69;;;-1.22;86.04
46347;BME280;32057;47.830;19.046;2023-04-04T04:52:28;100427.44;;;-1.17;86.85
46347;BME280;32057;47.830;19.046;2023-04-04T04:54:55;100420.53;;;-1.18;82.92
46347;BME280;32057;47.830;19.046;2023-04-04T04:57:21;100420.72;;;-1.03;82.54
46347;BME280;32057;47.830;19.046;2023-04-04T04:59:47;100414.03;;;-1.01;78.62
46347;BME280;32057;47.830;19.046;2023-04-04T05:02:13;100410.03;;;-0.59;75.20
46347;BME280;32057;47.830;19.046;2023-04-04T05:04:39;100414.38;;;-0.05;72.17
46347;BME280;32057;47.830;19.046;2023-04-04T05:07:05;100405.94;;;0.51;72.21
46347;BME280;32057;47.830;19.046;2023-04-04T05:09:32;100397.44;;;0.94;72.47
46347;BME280;32057;47.830;19.046;2023-04-04T05:11:58;100400.81;;;1.37;68.89
46347;BME280;32057;47.830;19.046;2023-04-04T05:14:23;100400.88;;;1.84;63.27
46347;BME280;32057;47.830;19.046;2023-04-04T05:16:49;100398.47;;;2.33;63.78
46347;BME280;32057;47.830;19.046;2023-04-04T05:19:14;100390.00;;;3.16;60.61
46347;BME280;32057;47.830;19.046;2023-04-04T05:21:40;100396.44;;;3.08;60.35
46347;BME280;32057;47.830;19.046;2023-04-04T05:24:06;100396.72;;;3.30;62.81
46347;BME280;32057;47.830;19.046;2023-04-04T05:26:31;100395.41;;;2.88;60.59
46347;BME280;32057;47.830;19.046;2023-04-04T05:28:57;100388.69;;;3.24;61.20
46347;BME280;32057;47.830;19.046;2023-04-04T05:31:23;100389.34;;;3.20;58.84
46347;BME280;32057;47.830;19.046;2023-04-04T05:33:49;100393.06;;;2.76;61.41
46347;BME280;32057;47.830;19.046;2023-04-04T05:36:14;100394.06;;;2.30;64.09
46347;BME280;32057;47.830;19.046;2023-04-04T05:38:40;100395.31;;;2.70;63.31
46347;BME280;32057;47.830;19.046;2023-04-04T05:41:05;100387.47;;;3.34;61.11
46347;BME280;32057;47.830;19.046;2023-04-04T05:43:31;100371.22;;;4.25;58.98
46347;BME280;32057;47.830;19.046;2023-04-04T05:45:56;100380.50;;;3.85;58.41
46347;BME280;32057;47.830;19.046;2023-04-04T05:48:22;100383.63;;;3.78;59.60
46347;BME280;32057;47.830;19.046;2023-04-04T05:50:47;100382.34;;;3.52;60.17
46347;BME280;32057;47.830;19.046;2023-04-04T05:53:13;100388.25;;;2.82;62.24
46347;BME280;32057;47.830;19.046;2023-04-04T05:55:38;100394.16;;;2.48;64.27
46347;BME280;32057;47.830;19.046;2023-04-04T05:58:04;100395.19;;;2.35;65.40
46347;BME280;32057;47.830;19.046;2023-04-04T06:00:29;100394.16;;;2.32;64.66
46347;BME280;32057;47.830;19.046;2023-04-04T06:02:55;100395.59;;;2.59;63.18
46347;BME280;32057;47.830;19.046;2023-04-04T06:05:23;100410.19;;;2.92;64.06
46347;BME280;32057;47.830;19.046;2023-04-04T06:07:49;100412.16;;;3.14;66.18
46347;BME280;32057;47.830;19.046;2023-04-04T06:10:15;100413.09;;;3.32;64.44
46347;BME280;32057;47.830;19.046;2023-04-04T06:12:40;100414.38;;;3.41;63.12
46347;BME280;32057;47.830;19.046;2023-04-04T06:15:06;100422.66;;;3.35;62.24
46347;BME280;32057;47.830;19.046;2023-04-04T06:17:32;100413.22;;;3.52;63.53
46347;BME280;32057;47.830;19.046;2023-04-04T06:19:58;100406.25;;;3.67;63.17
46347;BME280;32057;47.830;19.046;2023-04-04T06:22:23;100417.47;;;3.86;60.48
46347;BME280;32057;47.830;19.046;2023-04-04T06:24:48;100408.50;;;3.95;59.46
46347;BME280;32057;47.830;19.046;2023-04-04T06:27:14;100416.34;;;4.16;58.98
46347;BME280;32057;47.830;19.046;2023-04-04T06:29:40;100409.34;;;4.32;58.60
46347;BME280;32057;47.830;19.046;2023-04-04T06:32:05;100410.81;;;3.91;56.89
46347;BME280;32057;47.830;19.046;2023-04-04T06:34:31;100412.59;;;4.28;57.02
46347;BME280;32057;47.830;19.046;2023-04-04T06:36:56;100409.78;;;4.61;57.89
46347;BME280;32057;47.830;19.046;2023-04-04T06:39:22;100410.28;;;4.34;53.06
46347;BME280;32057;47.830;19.046;2023-04-04T06:41:47;100404.34;;;4.54;52.51
46347;BME280;32057;47.830;19.046;2023-04-04T06:44:13;100409.34;;;4.89;52.60
46347;BME280;32057;47.830;19.046;2023-04-04T06:46:38;100414.69;;;5.13;53.25
46347;BME280;32057;47.830;19.046;2023-04-04T06:49:04;100404.97;;;5.27;47.70
46347;BME280;32057;47.830;19.046;2023-04-04T06:51:32;100408.44;;;5.27;46.98
46347;BME280;32057;47.830;19.046;2023-04-04T06:53:59;100407.66;;;4.89;47.48
46347;BME280;32057;47.830;19.046;2023-04-04T06:56:25;100401.06;;;4.96;48.24
46347;BME280;32057;47.830;19.046;2023-04-04T06:58:51;100395.56;;;4.69;47.75
46347;BME280;32057;47.830;19.046;2023-04-04T07:01:17;100377.50;;;4.88;48.24
46347;BME280;32057;47.830;19.046;2023-04-04T07:03:42;100380.50;;;4.78;47.74
46347;BME280;32057;47.830;19.046;2023-04-04T07:06:09;100366.63;;;5.15;46.92
46347;BME280;32057;47.830;19.046;2023-04-04T07:08:35;100367.88;;;5.04;46.29
46347;BME280;32057;47.830;19.046;2023-04-04T07:11:01;100367.72;;;5.20;47.04
46347;BME280;32057;47.830;19.046;2023-04-04T07:13:26;100371.53;;;5.49;45.06
46347;BME280;32057;47.830;19.046;2023-04-04T07:15:52;100370.69;;;5.29;44.88
46347;BME280;32057;47.830;19.046;2023-04-04T07:18:17;100363.38;;;5.61;47.85
46347;BME280;32057;47.830;19.046;2023-04-04T07:20:45;100370.69;;;5.50;46.94
46347;BME280;32057;47.830;19.046;2023-04-04T07:23:11;100367.78;;;5.22;46.26
46347;BME280;32057;47.830;19.046;2023-04-04T07:25:37;100385.50;;;4.75;45.55
46347;BME280;32057;47.830;19.046;2023-04-04T07:28:03;100375.19;;;5.14;46.64
46347;BME280;32057;47.830;19.046;2023-04-04T07:30:29;100383.16;;;5.39;44.45
46347;BME280;32057;47.830;19.046;2023-04-04T07:32:57;100375.34;;;5.38;45.09
46347;BME280;32057;47.830;19.046;2023-04-04T07:35:23;100384.13;;;5.43;44.61
46347;BME280;32057;47.830;19.046;2023-04-04T07:37:49;100380.88;;;5.26;45.64
46347;BME280;32057;47.830;19.046;2023-04-04T07:40:14;100385.69;;;5.18;46.48
46347;BME280;32057;47.830;19.046;2023-04-04T07:42:45;100389.56;;;5.28;45.37
46347;BME280;32057;47.830;19.046;2023-04-04T07:45:14;100391.78;;;4.99;45.97
46347;BME280;32057;47.830;19.046;2023-04-04T07:47:43;100385.97;;;5.05;46.60
46347;BME280;32057;47.830;19.046;2023-04-04T07:50:10;100396.31;;;4.86;44.51
46347;BME280;32057;47.830;19.046;2023-04-04T07:52:36;100399.63;;;4.83;46.99
46347;BME280;32057;47.830;19.046;2023-04-04T07:55:01;100397.81;;;4.43;46.08
46347;BME280;32057;47.830;19.046;2023-04-04T07:57:28;100392.38;;;4.37;47.25
46347;BME280;32057;47.830;19.046;2023-04-04T07:59:53;100398.53;;;4.58;46.77
46347;BME280;32057;47.830;19.046;2023-04-04T08:02:18;100398.00;;;4.66;47.25
46347;BME280;32057;47.830;19.046;2023-04-04T08:04:44;100394.44;;;4.44;46.22
46347;BME280;32057;47.830;19.046;2023-04-04T08:07:10;100390.47;;;4.33;47.49
46347;BME280;32057;47.830;19.046;2023-04-04T08:09:35;100390.03;;;4.61;48.10
46347;BME280;32057;47.830;19.046;2023-04-04T08:12:01;100376.66;;;4.88;45.38
46347;BME280;32057;47.830;19.046;2023-04-04T08:14:27;100380.28;;;4.93;47.11
46347;BME280;32057;47.830;19.046;2023-04-04T08:16:53;100382.53;;;5.05;47.45
46347;BME280;32057;47.830;19.046;2023-04-04T08:19:18;100384.97;;;5.02;46.75
46347;BME280;32057;47.830;19.046;2023-04-04T08:21:44;100383.38;;;5.25;46.78
46347;BME280;32057;47.830;19.046;2023-04-04T08:24:13;100387.41;;;5.18;45.34
46347;BME280;32057;47.830;19.046;2023-04-04T08:26:38;100375.53;;;5.43;45.68
46347;BME280;32057;47.830;19.046;2023-04-04T08:29:04;100373.13;;;5.68;49.75
46347;BME280;32057;47.830;19.046;2023-04-04T08:31:29;100381.28;;;5.77;48.56
46347;BME280;32057;47.830;19.046;2023-04-04T08:33:55;100373.56;;;5.79;47.25
46347;BME280;32057;47.830;19.046;2023-04-04T08:36:20;100368.16;;;5.94;46.59
46347;BME280;32057;47.830;19.046;2023-04-04T08:38:46;100376.97;;;5.57;45.57
46347;BME280;32057;47.830;19.046;2023-04-04T08:41:12;100369.53;;;5.65;45.77
46347;BME280;32057;47.830;19.046;2023-04-04T08:43:44;100360.22;;;5.68;45.65
46347;BME280;32057;47.830;19.046;2023-04-04T08:46:12;100368.00;;;5.91;47.21
46347;BME280;32057;47.830;19.046;2023-04-04T08:48:40;100357.84;;;6.16;45.81
46347;BME280;32057;47.830;19.046;2023-04-04T08:51:06;100362.53;;;6.27;46.26
46347;BME280;32057;47.830;19.046;2023-04-04T08:53:34;100366.44;;;6.38;47.55
46347;BME280;32057;47.830;19.046;2023-04-04T08:56:01;100377.34;;;6.08;46.01
46347;BME280;32057;47.830;19.046;2023-04-04T08:58:26;100370.00;;;5.75;46.13
46347;BME280;32057;47.830;19.046;2023-04-04T09:00:53;100362.84;;;5.91;47.73
46347;BME280;32057;47.830;19.046;2023-04-04T09:05:47;100356.88;;;6.35;49.13
46347;BME280;32057;47.830;19.046;2023-04-04T09:08:13;100358.44;;;6.32;46.40
46347;BME280;32057;47.830;19.046;2023-04-04T09:10:40;100351.41;;;6.05;45.09
46347;BME280;32057;47.830;19.046;2023-04-04T09:13:08;100343.75;;;6.08;44.76
46347;BME280;32057;47.830;19.046;2023-04-04T09:15:36;100349.50;;;6.46;47.35
46347;BME280;32057;47.830;19.046;2023-04-04T09:18:03;100347.81;;;6.71;48.86
46347;BME280;32057;47.830;19.046;2023-04-04T09:20:38;100347.56;;;6.89;47.82
46347;BME280;32057;47.830;19.046;2023-04-04T09:23:09;100341.09;;;7.00;46.32
46347;BME280;32057;47.830;19.046;2023-04-04T09:25:36;100336.50;;;7.17;46.29
46347;BME280;32057;47.830;19.046;2023-04-04T09:28:04;100336.19;;;7.08;44.19
46347;BME280;32057;47.830;19.046;2023-04-04T09:30:33;100333.22;;;6.97;43.10
46347;BME280;32057;47.830;19.046;2023-04-04T09:33:03;100332.00;;;7.11;46.91
46347;BME280;32057;47.830;19.046;2023-04-04T09:35:32;100326.34;;;6.97;43.83
46347;BME280;32057;47.830;19.046;2023-04-04T09:37:57;100325.41;;;6.95;43.46
46347;BME280;32057;47.830;19.046;2023-04-04T09:40:23;100336.50;;;6.45;44.20
46347;BME280;32057;47.830;19.046;2023-04-04T09:42:52;100334.72;;;6.66;45.44
46347;BME280;32057;47.830;19.046;2023-04-04T09:45:18;100326.53;;;6.78;46.72
46347;BME280;32057;47.830;19.046;2023-04-04T09:47:44;100323.44;;;6.88;45.71
46347;BME280;32057;47.830;19.046;2023-04-04T09:50:20;100317.75;;;6.98;46.12
46347;BME280;32057;47.830;19.046;2023-04-04T09:52:51;100316.00;;;7.23;45.74
46347;BME280;32057;47.830;19.046;2023-04-04T09:55:30;100313.91;;;7.38;44.05
46347;BME280;32057;47.830;19.046;2023-04-04T09:57:58;100312.78;;;7.30;44.79
46347;BME280;32057;47.830;19.046;2023-04-04T10:00:32;100303.59;;;7.40;46.04
46347;BME280;32057;47.830;19.046;2023-04-04T10:03:10;100297.84;;;7.49;44.52
46347;BME280;32057;47.830;19.046;2023-04-04T10:05:56;100281.38;;;7.47;45.94
46347;BME280;32057;47.830;19.046;2023-04-04T10:08:29;100284.38;;;7.59;43.39
46347;BME280;32057;47.830;19.046;2023-04-04T10:11:02;100287.22;;;7.40;42.87
46347;BME280;32057;47.830;19.046;2023-04-04T10:13:55;100283.72;;;7.66;43.06
46347;BME280;32057;47.830;19.046;2023-04-04T10:16:55;100279.75;;;7.77;42.71
46347;BME280;32057;47.830;19.046;2023-04-04T10:19:21;100270.56;;;7.87;42.70
46347;BME280;32057;47.830;19.046;2023-04-04T10:21:46;100269.16;;;7.98;41.97
46347;BME280;32057;47.830;19.046;2023-04-04T10:24:12;100265.59;;;8.24;43.99
46347;BME280;32057;47.830;19.046;2023-04-04T10:26:39;100267.69;;;8.37;42.50
46347;BME280;32057;47.830;19.046;2023-04-04T10:29:04;100274.44;;;8.32;38.54
46347;BME280;32057;47.830;19.046;2023-04-04T10:31:32;100270.72;;;8.52;43.62
46347;BME280;32057;47.830;19.046;2023-04-04T10:34:24;100266.28;;;8.47;42.38
46347;BME280;32057;47.830;19.046;2023-04-04T10:37:00;100265.75;;;8.00;40.06
46347;BME280;32057;47.830;19.046;2023-04-04T10:39:48;100272.25;;;7.58;41.32
46347;BME280;32057;47.830;19.046;2023-04-04T10:42:16;100271.06;;;7.75;42.50
46347;BME280;32057;47.830;19.046;2023-04-04T10:44:43;100267.75;;;7.80;40.33
46347;BME280;32057;47.830;19.046;2023-04-04T10:47:21;100261.75;;;7.82;42.31
46347;BME280;32057;47.830;19.046;2023-04-04T10:49:48;100260.66;;;7.74;41.59
46347;BME280;32057;47.830;19.046;2023-04-04T10:52:22;100255.84;;;7.57;41.30
46347;BME280;32057;47.830;19.046;2023-04-04T10:55:03;100261.19;;;7.36;40.22
46347;BME280;32057;47.830;19.046;2023-04-04T10:57:31;100261.88;;;7.31;38.49
46347;BME280;32057;47.830;19.046;2023-04-04T11:00:00;100246.47;;;7.61;39.44
46347;BME280;32057;47.830;19.046;2023-04-04T11:02:46;100248.22;;;7.62;39.34
46347;BME280;32057;47.830;19.046;2023-04-04T11:07:44;100251.84;;;7.67;42.62
46347;BME280;32057;47.830;19.046;2023-04-04T11:10:14;100255.59;;;7.78;38.74
46347;BME280;32057;47.830;19.046;2023-04-04T11:12:43;100249.22;;;7.96;39.98
46347;BME280;32057;47.830;19.046;2023-04-04T11:15:13;100245.44;;;7.85;38.96
46347;BME280;32057;47.830;19.046;2023-04-04T11:17:50;100237.19;;;7.98;38.35
46347;BME280;32057;47.830;19.046;2023-04-04T11:20:27;100241.03;;;8.11;39.53
46347;BME280;32057;47.830;19.046;2023-04-04T11:23:18;100241.34;;;8.22;40.92
46347;BME280;32057;47.830;19.046;2023-04-04T11:25:54;100241.91;;;8.11;39.53
46347;BME280;32057;47.830;19.046;2023-04-04T11:28:42;100242.72;;;8.10;39.81
46347;BME280;32057;47.830;19.046;2023-04-04T11:34:07;100234.59;;;7.98;38.40
46347;BME280;32057;47.830;19.046;2023-04-04T11:44:23;100229.00;;;8.75;43.00
46347;BME280;32057;47.830;19.046;2023-04-04T11:47:19;100233.69;;;8.90;41.58
46347;BME280;32057;47.830;19.046;2023-04-04T11:49:45;100219.94;;;8.94;44.52
46347;BME280;32057;47.830;19.046;2023-04-04T11:52:15;100205.47;;;9.04;45.89
46347;BME280;32057;47.830;19.046;2023-04-04T11:54:43;100207.41;;;9.11;39.51
46347;BME280;32057;47.830;19.046;2023-04-04T11:57:19;100212.19;;;8.95;40.13
46347;BME280;32057;47.830;19.046;2023-04-04T11:59:46;100212.97;;;8.91;36.52
46347;BME280;32057;47.830;19.046;2023-04-04T12:02:15;100201.56;;;8.86;37.61
46347;BME280;32057;47.830;19.046;2023-04-04T12:04:41;100197.66;;;9.02;42.66
46347;BME280;32057;47.830;19.046;2023-04-04T12:07:10;100205.78;;;9.16;39.40
46347;BME280;32057;47.830;19.046;2023-04-04T12:09:37;100201.56;;;9.21;39.13
46347;BME280;32057;47.830;19.046;2023-04-04T12:12:02;100207.44;;;9.14;39.26
46347;BME280;32057;47.830;19.046;2023-04-04T12:14:31;100203.47;;;8.58;37.60
46347;BME280;32057;47.830;19.046;2023-04-04T12:16:57;100199.03;;;8.88;39.99
46347;BME280;32057;47.830;19.046;2023-04-04T12:19:24;100194.09;;;8.98;38.09
46347;BME280;32057;47.830;19.046;2023-04-04T12:21:51;100180.81;;;9.21;37.87
46347;BME280;32057;47.830;19.046;2023-04-04T12:24:18;100187.88;;;9.27;37.60
46347;BME280;32057;47.830;19.046;2023-04-04T12:26:47;100193.97;;;9.29;38.21
46347;BME280;32057;47.830;19.046;2023-04-04T12:29:15;100190.34;;;9.22;38.92
46347;BME280;32057;47.830;19.046;2023-04-04T12:31:43;100185.16;;;9.22;35.97
46347;BME280;32057;47.830;19.046;2023-04-04T12:34:21;100177.47;;;9.27;38.04
46347;BME280;32057;47.830;19.046;2023-04-04T12:36:47;100176.88;;;9.39;37.97
46347;BME280;32057;47.830;19.046;2023-04-04T12:39:14;100191.75;;;9.46;37.59
46347;BME280;32057;47.830;19.046;2023-04-04T12:44:25;100180.72;;;9.56;39.72
46347;BME280;32057;47.830;19.046;2023-04-04T12:46:55;100181.03;;;9.32;36.76
46347;BME280;32057;47.830;19.046;2023-04-04T12:49:22;100173.78;;;9.17;35.91
46347;BME280;32057;47.830;19.046;2023-04-04T12:51:48;100171.34;;;9.23;37.12
46347;BME280;32057;47.830;19.046;2023-04-04T12:54:28;100157.44;;;9.21;37.13
46347;BME280;32057;47.830;19.046;2023-04-04T12:56:57;100170.19;;;9.12;38.10
46347;BME280;32057;47.830;19.046;2023-04-04T12:59:28;100162.91;;;8.95;38.28
46347;BME280;32057;47.830;19.046;2023-04-04T13:01:54;100156.41;;;8.78;36.06
46347;BME280;32057;47.830;19.046;2023-04-04T13:04:20;100148.81;;;8.86;36.50
46347;BME280;32057;47.830;19.046;2023-04-04T13:06:46;100154.25;;;8.95;36.56